createdAt,value
2019-04-25T00:00:48.758Z,78.90
2019-04-25T00:03:22.245Z,79.30
2019-04-25T00:05:52.630Z,79.60
2019-04-25T00:08:23.902Z,79.80
2019-04-25T00:10:54.240Z,79.90
2019-04-25T00:13:24.929Z,79.60
2019-04-25T00:15:55.153Z,79.10
2019-04-25T00:18:25.757Z,78.80
2019-04-25T00:20:57.829Z,78.80
2019-04-25T00:23:28.044Z,78.80
2019-04-25T00:26:01.405Z,78.20
2019-04-25T00:28:32.129Z,78.40
2019-04-25T00:31:03.084Z,78.80
2019-04-25T00:33:33.303Z,79.10
2019-04-25T00:36:04.482Z,79.20
2019-04-25T00:38:34.686Z,79.30
2019-04-25T00:41:05.001Z,78.80
2019-04-25T00:43:35.208Z,77.80
2019-04-25T00:46:05.413Z,77.70
2019-04-25T00:48:35.906Z,78.00
2019-04-25T00:51:06.298Z,78.80
2019-04-25T00:53:36.542Z,78.00
2019-04-25T00:56:06.764Z,77.80
2019-04-25T00:58:52.843Z,77.60
2019-04-25T01:01:43.109Z,77.30
2019-04-25T01:04:15.835Z,77.00
2019-04-25T01:06:46.223Z,77.00
2019-04-25T01:09:18.176Z,77.20
2019-04-25T01:11:48.800Z,77.50
2019-04-25T01:14:19.081Z,76.90
2019-04-25T01:16:49.650Z,76.90
2019-04-25T01:19:19.975Z,77.40
2019-04-25T01:21:50.158Z,77.60
2019-04-25T01:24:20.535Z,77.80
2019-04-25T01:26:51.640Z,77.70
2019-04-25T01:29:23.399Z,77.20
2019-04-25T01:31:54.453Z,77.40
2019-04-25T01:34:29.765Z,77.60
2019-04-25T01:37:34.104Z,78.20
2019-04-25T01:40:24.313Z,77.80
2019-04-25T01:43:03.720Z,77.40
2019-04-25T01:45:36.182Z,77.70
2019-04-25T01:48:06.720Z,78.60
2019-04-25T01:50:37.179Z,78.20
2019-04-25T01:53:07.472Z,78.00
2019-04-25T01:55:37.914Z,77.60
2019-04-25T01:58:08.198Z,76.90
2019-04-25T02:00:44.920Z,77.00
2019-04-25T02:03:15.646Z,77.40
2019-04-25T02:05:45.839Z,76.90
2019-04-25T02:08:16.036Z,76.50
2019-04-25T02:10:50.751Z,76.60
2019-04-25T02:13:23.619Z,76.40
2019-04-25T02:15:55.178Z,77.10
2019-04-25T02:18:25.920Z,76.40
2019-04-25T02:20:59.313Z,76.20
2019-04-25T02:23:28.706Z,75.80
2019-04-25T02:26:12.636Z,75.80
2019-04-25T02:28:30.845Z,76.30
2019-04-25T02:31:03.818Z,76.40
2019-04-25T02:33:34.038Z,76.00
2019-04-25T02:36:08.633Z,76.40
2019-04-25T02:38:59.562Z,75.70
2019-04-25T02:41:26.440Z,75.40
2019-04-25T02:44:01.211Z,75.20
2019-04-25T02:46:37.386Z,75.80
2019-04-25T02:49:29.735Z,76.20
2019-04-25T02:52:02.341Z,76.80
2019-04-25T02:54:34.815Z,77.40
2019-04-25T02:57:07.817Z,78.60
2019-04-25T02:59:37.017Z,79.10
2019-04-25T03:02:09.209Z,78.60
2019-04-25T03:04:40.935Z,79.40
2019-04-25T03:07:11.521Z,78.40
2019-04-25T03:09:41.911Z,78.60
2019-04-25T03:12:26.681Z,79.20
2019-04-25T03:14:44.769Z,78.90
2019-04-25T03:17:16.329Z,79.20
2019-04-25T03:19:50.809Z,79.60
2019-04-25T03:22:26.376Z,79.50
2019-04-25T03:24:55.905Z,80.00
2019-04-25T03:27:26.098Z,79.70
2019-04-25T03:29:56.332Z,79.80
2019-04-25T03:32:35.264Z,79.20
2019-04-25T03:35:08.903Z,78.80
2019-04-25T03:37:40.059Z,79.10
2019-04-25T03:40:13.967Z,78.70
2019-04-25T03:42:47.644Z,78.80
2019-04-25T03:45:17.858Z,79.80
2019-04-25T03:47:48.079Z,79.20
2019-04-25T03:50:18.316Z,79.00
2019-04-25T03:52:48.566Z,79.90
2019-04-25T03:55:18.806Z,80.00
2019-04-25T03:58:10.541Z,80.20
2019-04-25T04:00:39.766Z,80.70
2019-04-25T04:03:09.999Z,80.80
2019-04-25T04:05:40.187Z,81.20
2019-04-25T04:08:10.424Z,80.60
2019-04-25T04:10:40.680Z,80.70
2019-04-25T04:13:10.935Z,81.00
2019-04-25T04:15:41.117Z,80.40
2019-04-25T04:18:16.267Z,80.50
2019-04-25T04:20:56.319Z,80.80
2019-04-25T04:23:30.898Z,80.90
2019-04-25T04:26:01.103Z,81.00
2019-04-25T04:28:33.724Z,81.10
2019-04-25T04:31:04.038Z,80.60
2019-04-25T04:33:34.647Z,80.70
2019-04-25T04:36:04.941Z,80.00
2019-04-25T04:38:35.226Z,80.60
2019-04-25T04:41:05.479Z,80.60
2019-04-25T04:43:35.686Z,80.70
2019-04-25T04:46:05.893Z,80.80
2019-04-25T04:48:36.106Z,80.30
2019-04-25T04:51:06.302Z,80.40
2019-04-25T04:53:36.598Z,79.80
2019-04-25T04:56:06.832Z,79.70
2019-04-25T04:58:37.053Z,79.10
2019-04-25T05:01:07.543Z,78.60
2019-04-25T05:03:39.760Z,78.20
2019-04-25T05:06:11.595Z,78.60
2019-04-25T05:08:43.573Z,78.80
2019-04-25T05:11:15.808Z,78.10
2019-04-25T05:13:46.810Z,76.20
2019-04-25T05:16:17.724Z,74.20
2019-04-25T05:18:48.292Z,72.30
2019-04-25T05:21:18.506Z,71.80
2019-04-25T05:23:48.806Z,72.40
2019-04-25T05:26:19.097Z,73.00
2019-04-25T05:28:50.547Z,73.40
2019-04-25T05:31:22.386Z,74.20
2019-04-25T05:33:53.633Z,74.80
2019-04-25T05:36:25.879Z,74.90
2019-04-25T05:38:56.064Z,74.80
2019-04-25T05:41:30.814Z,74.60
2019-04-25T05:44:01.002Z,73.50
2019-04-25T05:46:31.213Z,71.10
2019-04-25T05:49:01.414Z,69.80
2019-04-25T05:51:31.691Z,68.50
2019-04-25T05:54:01.890Z,68.50
2019-04-25T05:56:33.626Z,69.30
2019-04-25T05:59:05.521Z,68.40
2019-04-25T06:01:36.102Z,67.50
2019-04-25T06:04:06.310Z,69.30
2019-04-25T06:06:36.953Z,69.30
2019-04-25T06:09:15.098Z,70.10
2019-04-25T06:11:46.960Z,70.50
2019-04-25T06:14:19.751Z,70.90
2019-04-25T06:16:53.623Z,70.80
2019-04-25T06:19:43.409Z,69.60
2019-04-25T06:22:20.946Z,68.50
2019-04-25T06:24:54.180Z,69.90
2019-04-25T06:27:27.044Z,70.10
2019-04-25T06:30:00.980Z,69.50
2019-04-25T06:32:35.027Z,68.70
2019-04-25T06:35:06.234Z,68.30
2019-04-25T06:37:36.440Z,67.60
2019-04-25T06:40:09.189Z,68.10
2019-04-25T06:42:39.467Z,67.10
2019-04-25T06:45:31.026Z,66.90
2019-04-25T06:48:06.012Z,66.70
2019-04-25T06:50:36.090Z,65.70
2019-04-25T06:53:06.810Z,65.10
2019-04-25T06:55:37.053Z,63.30
2019-04-25T06:58:11.956Z,58.80
2019-04-25T07:00:42.586Z,54.80
2019-04-25T07:03:11.377Z,50.60
2019-04-25T07:05:41.568Z,47.80
2019-04-25T07:08:13.323Z,46.70
2019-04-25T07:10:44.636Z,45.00
2019-04-25T07:13:15.268Z,45.50
2019-04-25T07:15:45.615Z,45.70
2019-04-25T07:18:15.827Z,48.60
2019-04-25T07:20:46.032Z,51.10
2019-04-25T07:23:16.226Z,54.20
2019-04-25T07:25:48.148Z,56.00
2019-04-25T07:28:24.240Z,57.90
2019-04-25T07:30:59.258Z,58.70
2019-04-25T07:33:35.060Z,58.10
2019-04-25T07:36:06.346Z,59.70
2019-04-25T07:38:36.594Z,60.70
2019-04-25T07:41:06.820Z,60.60
2019-04-25T07:43:37.143Z,61.10
2019-04-25T07:46:10.902Z,61.90
2019-04-25T07:48:53.553Z,61.30
2019-04-25T07:51:26.896Z,59.70
2019-04-25T07:53:59.924Z,58.70
2019-04-25T07:56:34.969Z,58.10
2019-04-25T07:59:07.286Z,58.10
2019-04-25T08:01:38.778Z,57.60
2019-04-25T08:04:14.796Z,57.30
2019-04-25T08:06:45.074Z,57.30
2019-04-25T08:09:16.068Z,56.60
2019-04-25T08:11:46.263Z,57.20
2019-04-25T08:14:18.075Z,57.20
2019-04-25T08:16:58.597Z,57.20
2019-04-25T08:19:29.606Z,57.10
2019-04-25T08:22:00.029Z,57.00
2019-04-25T08:24:30.776Z,56.60
2019-04-25T08:27:01.069Z,56.70
2019-04-25T08:29:31.803Z,57.00
2019-04-25T08:32:02.139Z,56.40
2019-04-25T08:34:34.160Z,56.50
2019-04-25T08:37:04.415Z,55.70
2019-04-25T08:39:38.036Z,55.70
2019-04-25T08:42:06.530Z,55.90
2019-04-25T08:44:36.994Z,56.80
2019-04-25T08:47:07.411Z,56.80
2019-04-25T08:49:39.924Z,56.00
2019-04-25T08:52:10.615Z,55.40
2019-04-25T08:54:49.533Z,55.90
2019-04-25T08:57:21.467Z,55.20
2019-04-25T09:00:04.247Z,54.70
2019-04-25T09:02:38.931Z,53.00
2019-04-25T09:05:32.630Z,52.20
2019-04-25T09:08:20.437Z,50.40
2019-04-25T09:10:50.691Z,50.00
2019-04-25T09:13:20.906Z,49.90
2019-04-25T09:15:51.319Z,50.00
2019-04-25T09:18:24.060Z,49.90
2019-04-25T09:20:54.311Z,50.10
2019-04-25T09:23:45.378Z,48.50
2019-04-25T09:26:15.608Z,48.70
2019-04-25T09:28:46.689Z,49.00
2019-04-25T09:31:18.063Z,48.90
2019-04-25T09:33:49.893Z,48.90
2019-04-25T09:36:20.075Z,48.60
2019-04-25T09:38:51.940Z,48.90
2019-04-25T09:41:23.567Z,49.00
2019-04-25T09:43:55.710Z,49.00
2019-04-25T09:46:30.319Z,51.30
2019-04-25T09:49:05.176Z,48.30
2019-04-25T09:51:38.071Z,47.00
2019-04-25T09:54:09.930Z,45.40
2019-04-25T09:56:47.923Z,44.00
2019-04-25T09:59:27.172Z,44.00
2019-04-25T10:01:51.823Z,43.10
2019-04-25T10:04:23.056Z,42.60
2019-04-25T10:06:54.019Z,42.90
2019-04-25T10:09:24.293Z,43.40
2019-04-25T10:11:54.822Z,43.30
2019-04-25T10:14:47.945Z,41.70
2019-04-25T10:17:18.626Z,40.90
2019-04-25T10:19:48.857Z,41.50
2019-04-25T10:22:19.437Z,40.50
2019-04-25T10:24:59.885Z,37.90
2019-04-25T10:27:21.402Z,39.30
2019-04-25T10:29:54.485Z,39.50
2019-04-25T10:32:23.913Z,40.40
2019-04-25T10:34:54.172Z,40.40
2019-04-25T10:37:24.463Z,41.30
2019-04-25T10:39:55.686Z,40.30
2019-04-25T10:42:26.346Z,40.30
2019-04-25T10:44:56.729Z,39.90
2019-04-25T10:47:27.033Z,39.50
2019-04-25T10:49:59.157Z,39.40
2019-04-25T10:52:29.103Z,39.60
2019-04-25T10:54:59.338Z,39.90
2019-04-25T10:57:29.609Z,40.20
2019-04-25T11:00:06.248Z,41.00
2019-04-25T11:02:33.911Z,39.40
2019-04-25T11:05:08.201Z,39.40
2019-04-25T11:07:38.470Z,38.30
2019-04-25T11:10:09.009Z,39.00
2019-04-25T11:12:39.994Z,39.40
2019-04-25T11:15:10.644Z,40.00
2019-04-25T11:17:40.817Z,40.00
2019-04-25T11:20:14.419Z,40.00
2019-04-25T11:22:45.909Z,39.10
2019-04-25T11:25:18.998Z,38.40
2019-04-25T11:27:49.925Z,38.50
2019-04-25T11:30:22.537Z,39.20
2019-04-25T11:32:53.498Z,40.30
2019-04-25T11:35:27.964Z,39.90
2019-04-25T11:37:59.891Z,39.80
2019-04-25T11:40:37.356Z,39.50
2019-04-25T11:43:07.601Z,41.40
2019-04-25T11:45:41.075Z,42.40
2019-04-25T11:48:25.493Z,43.10
2019-04-25T11:50:55.934Z,41.80
2019-04-25T11:53:26.309Z,41.20
2019-04-25T11:55:56.591Z,42.10
2019-04-25T11:58:27.314Z,43.40
2019-04-25T12:00:58.032Z,45.00
2019-04-25T12:03:28.427Z,45.30
2019-04-25T12:05:58.717Z,46.40
2019-04-25T12:08:28.901Z,46.80
2019-04-25T12:10:59.129Z,47.70
2019-04-25T12:13:29.347Z,47.80
2019-04-25T12:15:59.662Z,47.10
2019-04-25T12:18:29.850Z,47.50
2019-04-25T12:21:00.081Z,48.00
2019-04-25T12:23:30.328Z,48.00
2019-04-25T12:26:00.548Z,47.00
2019-04-25T12:28:30.818Z,46.10
2019-04-25T12:31:01.027Z,46.10
2019-04-25T12:33:31.235Z,46.50
2019-04-25T12:36:01.431Z,46.00
2019-04-25T12:38:35.080Z,45.20
2019-04-25T12:41:04.115Z,45.10
2019-04-25T12:43:37.800Z,46.10
2019-04-25T12:46:27.895Z,46.10
2019-04-25T12:48:58.079Z,45.60
2019-04-25T12:51:28.328Z,45.80
2019-04-25T12:53:58.582Z,46.70
2019-04-25T12:56:28.791Z,45.70
2019-04-25T12:58:58.973Z,45.20
2019-04-25T13:01:29.178Z,45.90
2019-04-25T13:03:59.443Z,45.20
2019-04-25T13:06:29.656Z,46.60
2019-04-25T13:08:59.846Z,46.90
2019-04-25T13:11:30.052Z,48.10
2019-04-25T13:14:00.587Z,48.80
2019-04-25T13:16:30.865Z,47.90
2019-04-25T13:19:14.408Z,48.30
2019-04-25T13:21:34.285Z,48.50
2019-04-25T13:24:05.297Z,49.70
2019-04-25T13:26:37.244Z,50.30
2019-04-25T13:29:13.248Z,50.20
2019-04-25T13:31:55.783Z,49.60
2019-04-25T13:34:36.074Z,50.00
2019-04-25T13:36:59.615Z,50.30
2019-04-25T13:39:29.811Z,50.60
2019-04-25T13:42:01.915Z,52.90
2019-04-25T13:44:31.874Z,51.70
2019-04-25T13:47:02.078Z,51.50
2019-04-25T13:49:32.267Z,51.20
2019-04-25T13:52:03.349Z,52.90
2019-04-25T13:54:34.971Z,54.20
2019-04-25T13:57:05.337Z,55.80
2019-04-25T13:59:36.856Z,56.70
2019-04-25T14:02:07.049Z,57.30
2019-04-25T14:04:37.306Z,56.70
2019-04-25T14:07:07.500Z,56.20
2019-04-25T14:09:55.816Z,55.90
2019-04-25T14:12:27.592Z,55.10
2019-04-25T14:14:57.981Z,55.10
2019-04-25T14:17:35.826Z,54.80
2019-04-25T14:20:09.129Z,54.00
2019-04-25T14:22:39.683Z,53.30
2019-04-25T14:25:09.944Z,53.60
2019-04-25T14:27:45.623Z,53.20
2019-04-25T14:30:17.576Z,54.30
2019-04-25T14:32:47.804Z,56.40
2019-04-25T14:35:18.049Z,56.30
2019-04-25T14:37:48.338Z,57.00
2019-04-25T14:40:18.622Z,56.60
2019-04-25T14:42:51.291Z,56.00
2019-04-25T14:45:22.584Z,55.40
2019-04-25T14:47:53.022Z,55.40
2019-04-25T14:50:23.293Z,55.30
2019-04-25T14:52:53.481Z,54.10
2019-04-25T14:55:29.610Z,53.60
2019-04-25T14:58:04.512Z,53.50
2019-04-25T15:00:42.608Z,53.90
2019-04-25T15:03:12.975Z,53.10
2019-04-25T15:05:43.571Z,54.40
2019-04-25T15:08:13.907Z,54.70
2019-04-25T15:10:44.083Z,55.60
2019-04-25T15:13:17.484Z,56.50
2019-04-25T15:15:47.936Z,56.40
2019-04-25T15:18:18.436Z,55.60
2019-04-25T15:20:48.422Z,56.00
2019-04-25T15:23:18.617Z,56.40
2019-04-25T15:25:48.807Z,56.50
2019-04-25T15:28:19.017Z,56.80
2019-04-25T15:30:49.262Z,58.60
2019-04-25T15:33:19.525Z,59.20
2019-04-25T15:35:52.468Z,58.70
2019-04-25T15:38:54.036Z,59.20
2019-04-25T15:41:39.891Z,59.80
2019-04-25T15:44:20.524Z,61.40
2019-04-25T15:46:52.614Z,61.90
2019-04-25T15:49:22.998Z,61.00
2019-04-25T15:51:53.177Z,59.90
2019-04-25T15:54:23.376Z,60.00
2019-04-25T15:56:53.558Z,57.50
2019-04-25T15:59:23.763Z,58.00
2019-04-25T16:02:07.455Z,56.60
2019-04-25T16:04:28.219Z,54.90
2019-04-25T16:06:58.870Z,54.10
2019-04-25T16:09:39.509Z,53.50
2019-04-25T16:12:11.132Z,55.00
2019-04-25T16:14:41.353Z,55.30
2019-04-25T16:17:12.866Z,55.00
2019-04-25T16:19:43.091Z,55.60
2019-04-25T16:22:14.247Z,55.50
2019-04-25T16:24:44.543Z,55.20
2019-04-25T16:27:15.925Z,54.80
2019-04-25T16:29:45.446Z,55.00
2019-04-25T16:32:20.622Z,54.70
2019-04-25T16:34:49.176Z,55.40
2019-04-25T16:37:19.353Z,55.10
2019-04-25T16:39:50.124Z,55.20
2019-04-25T16:42:20.304Z,55.80
2019-04-25T16:44:50.542Z,55.20
2019-04-25T16:47:23.113Z,55.40
2019-04-25T16:49:54.867Z,55.50
2019-04-25T16:52:27.049Z,56.10
2019-04-25T16:55:09.698Z,54.90
2019-04-25T16:57:39.876Z,55.00
2019-04-25T17:00:12.762Z,55.10
2019-04-25T17:02:44.623Z,55.00
2019-04-25T17:05:15.123Z,54.80
2019-04-25T17:07:45.385Z,54.70
2019-04-25T17:10:18.198Z,55.10
2019-04-25T17:12:48.276Z,54.80
2019-04-25T17:15:26.166Z,55.00
2019-04-25T17:18:06.801Z,55.20
2019-04-25T17:20:39.632Z,55.30
2019-04-25T17:23:12.306Z,55.70
2019-04-25T17:25:42.650Z,55.30
2019-04-25T17:28:13.146Z,55.40
2019-04-25T17:30:45.110Z,55.10
2019-04-25T17:33:35.719Z,55.40
2019-04-25T17:36:10.158Z,55.50
2019-04-25T17:38:42.228Z,56.40
2019-04-25T17:41:12.881Z,57.20
2019-04-25T17:43:43.845Z,56.60
2019-04-25T17:46:15.407Z,56.50
2019-04-25T17:48:45.399Z,57.20
2019-04-25T17:51:15.620Z,57.30
2019-04-25T17:53:45.807Z,57.10
2019-04-25T17:56:16.012Z,57.00
2019-04-25T17:58:46.227Z,57.10
2019-04-25T18:01:18.201Z,56.60
2019-04-25T18:03:48.398Z,56.70
2019-04-25T18:06:18.603Z,57.30
2019-04-25T18:08:51.638Z,57.50
2019-04-25T18:11:22.136Z,57.50
2019-04-25T18:13:52.302Z,57.20
2019-04-25T18:16:42.347Z,56.60
2019-04-25T18:19:15.694Z,56.60
2019-04-25T18:21:45.924Z,56.60
2019-04-25T18:24:17.749Z,57.00
2019-04-25T18:26:49.701Z,57.40
2019-04-25T18:29:21.618Z,57.40
2019-04-25T18:31:51.880Z,57.80
2019-04-25T18:34:42.258Z,57.50
2019-04-25T18:37:17.321Z,57.70
2019-04-25T18:40:01.450Z,58.10
2019-04-25T18:42:46.656Z,58.40
2019-04-25T18:45:24.367Z,58.60
2019-04-25T18:47:54.577Z,58.70
2019-04-25T18:50:27.324Z,58.10
2019-04-25T18:53:02.099Z,57.50
2019-04-25T18:55:50.455Z,57.70
2019-04-25T18:58:23.284Z,57.60
2019-04-25T19:01:00.366Z,57.80
2019-04-25T19:03:46.368Z,58.30
2019-04-25T19:06:18.221Z,57.90
2019-04-25T19:08:48.918Z,57.70
2019-04-25T19:11:20.782Z,57.80
2019-04-25T19:13:51.686Z,57.50
2019-04-25T19:16:22.110Z,58.30
2019-04-25T19:18:52.390Z,57.90
2019-04-25T19:21:23.146Z,58.30
2019-04-25T19:23:55.906Z,58.70
2019-04-25T19:26:26.262Z,58.60
2019-04-25T19:28:56.490Z,58.70
2019-04-25T19:31:27.053Z,58.50
2019-04-25T19:33:57.354Z,58.70
2019-04-25T19:36:27.732Z,58.60
2019-04-25T19:38:58.232Z,58.70
2019-04-25T19:41:39.182Z,58.60
2019-04-25T19:44:17.198Z,58.50
2019-04-25T19:46:51.391Z,58.30
2019-04-25T19:49:30.668Z,58.40
2019-04-25T19:52:03.831Z,58.40
2019-04-25T19:54:40.888Z,58.20
2019-04-25T19:57:12.421Z,58.40
2019-04-25T19:59:43.250Z,59.10
2019-04-25T20:02:25.831Z,58.90
2019-04-25T20:05:07.222Z,57.70
2019-04-25T20:07:39.314Z,57.50
2019-04-25T20:10:26.215Z,56.80
2019-04-25T20:12:56.507Z,56.20
2019-04-25T20:15:26.695Z,56.50
2019-04-25T20:17:56.992Z,55.50
2019-04-25T20:20:27.188Z,55.00
2019-04-25T20:22:57.411Z,55.30
2019-04-25T20:25:27.658Z,55.40
2019-04-25T20:27:57.882Z,55.30
2019-04-25T20:30:28.087Z,55.50
2019-04-25T20:32:58.358Z,55.20
2019-04-25T20:35:28.549Z,55.70
2019-04-25T20:37:58.782Z,55.40
2019-04-25T20:40:29.063Z,55.60
2019-04-25T20:42:59.307Z,56.30
2019-04-25T20:45:29.559Z,56.00
2019-04-25T20:47:59.974Z,55.60
2019-04-25T20:50:30.159Z,55.80
2019-04-25T20:53:00.537Z,55.50
2019-04-25T20:55:30.732Z,55.60
2019-04-25T20:58:00.929Z,55.50
2019-04-25T21:00:40.238Z,55.90
2019-04-25T21:03:11.077Z,56.10
2019-04-25T21:05:42.846Z,56.20
2019-04-25T21:08:13.125Z,56.60
2019-04-25T21:10:43.366Z,57.70
2019-04-25T21:13:15.240Z,58.10
2019-04-25T21:15:59.912Z,58.20
2019-04-25T21:18:31.750Z,58.30
2019-04-25T21:21:02.033Z,58.50
2019-04-25T21:23:32.309Z,58.60
2019-04-25T21:26:39.374Z,58.20
2019-04-25T21:29:09.663Z,58.10
2019-04-25T21:31:39.922Z,57.70
2019-04-25T21:34:10.365Z,57.30
2019-04-25T21:36:41.025Z,57.20
2019-04-25T21:39:19.680Z,57.10
2019-04-25T21:42:16.904Z,57.20
2019-04-25T21:44:47.672Z,57.00
2019-04-25T21:47:17.979Z,57.00
2019-04-25T21:49:48.466Z,57.40
2019-04-25T21:52:19.257Z,57.30
2019-04-25T21:54:49.719Z,57.10
2019-04-25T21:57:20.539Z,58.00
2019-04-25T22:00:00.326Z,57.90
2019-04-25T22:02:23.553Z,58.20
2019-04-25T22:04:54.182Z,57.80
2019-04-25T22:07:25.818Z,57.80
2019-04-25T22:09:56.969Z,57.90
2019-04-25T22:12:27.575Z,57.70
2019-04-25T22:14:57.858Z,57.00
2019-04-25T22:17:28.041Z,57.40
2019-04-25T22:19:58.731Z,57.30
2019-04-25T22:22:29.979Z,57.10
2019-04-25T22:25:00.502Z,56.30
2019-04-25T22:27:33.085Z,56.90
2019-04-25T22:30:07.705Z,56.70
2019-04-25T22:32:40.602Z,56.90
2019-04-25T22:35:12.479Z,56.00
2019-04-25T22:37:42.702Z,56.00
2019-04-25T22:40:12.998Z,55.90
2019-04-25T22:42:43.170Z,55.90
2019-04-25T22:45:13.373Z,56.00
2019-04-25T22:47:43.566Z,55.80
2019-04-25T22:50:13.854Z,56.10
2019-04-25T22:52:44.044Z,55.90
2019-04-25T22:55:14.345Z,55.90
2019-04-25T22:57:44.906Z,56.50
2019-04-25T23:00:28.670Z,56.60
2019-04-25T23:03:01.897Z,57.00
2019-04-25T23:05:34.147Z,57.40
2019-04-25T23:08:05.824Z,57.90
2019-04-25T23:10:36.183Z,58.20
2019-04-25T23:13:06.760Z,57.50
2019-04-25T23:15:37.141Z,57.40
2019-04-25T23:18:07.599Z,57.90
2019-04-25T23:20:37.804Z,57.80
2019-04-25T23:23:08.361Z,57.70
2019-04-25T23:25:55.241Z,57.70
2019-04-25T23:28:27.654Z,57.70
2019-04-25T23:30:59.514Z,57.70
2019-04-25T23:33:29.689Z,58.00
2019-04-25T23:36:00.259Z,58.30
2019-04-25T23:38:30.426Z,58.50
2019-04-25T23:41:00.636Z,58.80
2019-04-25T23:43:30.823Z,59.10
2019-04-25T23:46:01.042Z,59.40
2019-04-25T23:48:32.867Z,58.90
2019-04-25T23:51:04.359Z,58.70
2019-04-25T23:53:35.018Z,58.80
2019-04-25T23:56:05.451Z,58.90
2019-04-25T23:58:35.637Z,58.70
